sensor_id;sensor_type;location;lat;lon;timestamp;P1;durP1;ratioP1;P2;durP2;ratioP2
79149;SDS011;68563;45.644;13.782;2023-05-10T00:01:53;3.60;;;2.33;;
79149;SDS011;68563;45.644;13.782;2023-05-10T00:04:19;3.60;;;2.60;;
79149;SDS011;68563;45.644;13.782;2023-05-10T00:06:45;4.63;;;2.40;;
79149;SDS011;68563;45.644;13.782;2023-05-10T00:09:10;2.90;;;2.45;;
79149;SDS011;68563;45.644;13.782;2023-05-10T00:11:35;3.08;;;2.33;;
79149;SDS011;68563;45.644;13.782;2023-05-10T00:14:01;4.32;;;2.40;;
79149;SDS011;68563;45.644;13.782;2023-05-10T00:16:26;4.18;;;2.20;;
79149;SDS011;68563;45.644;13.782;2023-05-10T00:18:52;2.70;;;2.17;;
79149;SDS011;68563;45.644;13.782;2023-05-10T00:21:17;3.70;;;2.40;;
79149;SDS011;68563;45.644;13.782;2023-05-10T00:23:42;2.58;;;2.00;;
79149;SDS011;68563;45.644;13.782;2023-05-10T00:26:08;3.20;;;2.20;;
79149;SDS011;68563;45.644;13.782;2023-05-10T00:28:33;3.58;;;2.42;;
79149;SDS011;68563;45.644;13.782;2023-05-10T00:30:58;3.28;;;2.78;;
79149;SDS011;68563;45.644;13.782;2023-05-10T00:33:24;4.35;;;2.50;;
79149;SDS011;68563;45.644;13.782;2023-05-10T00:35:49;3.58;;;2.10;;
79149;SDS011;68563;45.644;13.782;2023-05-10T00:38:15;2.72;;;2.00;;
79149;SDS011;68563;45.644;13.782;2023-05-10T00:40:40;3.22;;;2.00;;
79149;SDS011;68563;45.644;13.782;2023-05-10T00:43:06;4.68;;;2.60;;
79149;SDS011;68563;45.644;13.782;2023-05-10T00:45:32;3.28;;;2.00;;
79149;SDS011;68563;45.644;13.782;2023-05-10T00:47:58;4.07;;;2.60;;
79149;SDS011;68563;45.644;13.782;2023-05-10T00:50:26;3.40;;;2.38;;
79149;SDS011;68563;45.644;13.782;2023-05-10T00:52:51;4.32;;;2.88;;
79149;SDS011;68563;45.644;13.782;2023-05-10T00:55:17;5.60;;;2.30;;
79149;SDS011;68563;45.644;13.782;2023-05-10T00:57:43;5.13;;;2.17;;
79149;SDS011;68563;45.644;13.782;2023-05-10T01:00:09;5.20;;;2.70;;
79149;SDS011;68563;45.644;13.782;2023-05-10T01:02:36;5.30;;;2.55;;
79149;SDS011;68563;45.644;13.782;2023-05-10T01:05:02;3.67;;;2.33;;
79149;SDS011;68563;45.644;13.782;2023-05-10T01:07:28;4.00;;;2.45;;
79149;SDS011;68563;45.644;13.782;2023-05-10T01:09:54;4.43;;;2.55;;
79149;SDS011;68563;45.644;13.782;2023-05-10T01:12:20;3.85;;;2.55;;
79149;SDS011;68563;45.644;13.782;2023-05-10T01:14:45;4.00;;;2.85;;
79149;SDS011;68563;45.644;13.782;2023-05-10T01:17:11;3.63;;;2.90;;
79149;SDS011;68563;45.644;13.782;2023-05-10T01:19:37;6.55;;;2.13;;
79149;SDS011;68563;45.644;13.782;2023-05-10T01:31:02;4.40;;;2.45;;
79149;SDS011;68563;45.644;13.782;2023-05-10T01:36:30;2.70;;;2.50;;
79149;SDS011;68563;45.644;13.782;2023-05-10T01:39:19;4.30;;;2.45;;
79149;SDS011;68563;45.644;13.782;2023-05-10T01:50:15;3.00;;;2.15;;
79149;SDS011;68563;45.644;13.782;2023-05-10T01:52:46;2.80;;;2.10;;
79149;SDS011;68563;45.644;13.782;2023-05-10T01:55:20;3.22;;;2.15;;
79149;SDS011;68563;45.644;13.782;2023-05-10T01:57:48;2.25;;;1.88;;
79149;SDS011;68563;45.644;13.782;2023-05-10T02:00:17;5.78;;;2.58;;
79149;SDS011;68563;45.644;13.782;2023-05-10T02:02:45;3.83;;;2.53;;
79149;SDS011;68563;45.644;13.782;2023-05-10T02:05:13;4.47;;;2.72;;
79149;SDS011;68563;45.644;13.782;2023-05-10T02:07:40;3.42;;;2.50;;
79149;SDS011;68563;45.644;13.782;2023-05-10T02:10:07;4.57;;;2.70;;
79149;SDS011;68563;45.644;13.782;2023-05-10T02:12:40;3.80;;;2.78;;
79149;SDS011;68563;45.644;13.782;2023-05-10T02:15:07;3.55;;;2.95;;
79149;SDS011;68563;45.644;13.782;2023-05-10T02:17:34;4.47;;;2.70;;
79149;SDS011;68563;45.644;13.782;2023-05-10T02:20:02;4.82;;;2.40;;
79149;SDS011;68563;45.644;13.782;2023-05-10T02:22:30;4.57;;;2.67;;
79149;SDS011;68563;45.644;13.782;2023-05-10T02:24:57;4.05;;;2.60;;
79149;SDS011;68563;45.644;13.782;2023-05-10T02:27:24;3.72;;;2.70;;
79149;SDS011;68563;45.644;13.782;2023-05-10T02:29:52;3.25;;;2.15;;
79149;SDS011;68563;45.644;13.782;2023-05-10T02:32:19;3.47;;;2.63;;
79149;SDS011;68563;45.644;13.782;2023-05-10T02:34:46;4.03;;;3.00;;
79149;SDS011;68563;45.644;13.782;2023-05-10T02:37:16;5.13;;;2.92;;
79149;SDS011;68563;45.644;13.782;2023-05-10T02:39:45;3.58;;;2.80;;
79149;SDS011;68563;45.644;13.782;2023-05-10T02:42:13;3.70;;;2.60;;
79149;SDS011;68563;45.644;13.782;2023-05-10T02:47:08;2.90;;;2.00;;
79149;SDS011;68563;45.644;13.782;2023-05-10T02:49:33;4.13;;;2.80;;
79149;SDS011;68563;45.644;13.782;2023-05-10T02:52:00;4.07;;;2.90;;
79149;SDS011;68563;45.644;13.782;2023-05-10T02:54:30;3.30;;;2.75;;
79149;SDS011;68563;45.644;13.782;2023-05-10T02:56:58;4.85;;;2.80;;
79149;SDS011;68563;45.644;13.782;2023-05-10T02:59:26;4.63;;;2.60;;
79149;SDS011;68563;45.644;13.782;2023-05-10T03:01:52;5.43;;;2.72;;
79149;SDS011;68563;45.644;13.782;2023-05-10T03:04:17;3.58;;;2.85;;
79149;SDS011;68563;45.644;13.782;2023-05-10T03:06:43;5.35;;;2.80;;
79149;SDS011;68563;45.644;13.782;2023-05-10T03:09:09;4.13;;;2.85;;
79149;SDS011;68563;45.644;13.782;2023-05-10T03:19:26;3.25;;;2.70;;
79149;SDS011;68563;45.644;13.782;2023-05-10T03:21:55;3.47;;;2.80;;
79149;SDS011;68563;45.644;13.782;2023-05-10T03:24:27;3.50;;;3.10;;
79149;SDS011;68563;45.644;13.782;2023-05-10T03:26:54;4.05;;;3.03;;
79149;SDS011;68563;45.644;13.782;2023-05-10T03:29:24;4.07;;;2.83;;
79149;SDS011;68563;45.644;13.782;2023-05-10T03:31:51;5.00;;;2.90;;
79149;SDS011;68563;45.644;13.782;2023-05-10T03:34:22;3.47;;;3.08;;
79149;SDS011;68563;45.644;13.782;2023-05-10T03:36:48;4.03;;;3.28;;
79149;SDS011;68563;45.644;13.782;2023-05-10T03:39:14;4.45;;;3.10;;
79149;SDS011;68563;45.644;13.782;2023-05-10T03:41:39;4.10;;;2.80;;
79149;SDS011;68563;45.644;13.782;2023-05-10T03:44:05;3.40;;;2.40;;
79149;SDS011;68563;45.644;13.782;2023-05-10T03:46:30;7.20;;;2.70;;
79149;SDS011;68563;45.644;13.782;2023-05-10T03:48:55;5.35;;;3.08;;
79149;SDS011;68563;45.644;13.782;2023-05-10T03:51:21;3.40;;;2.70;;
79149;SDS011;68563;45.644;13.782;2023-05-10T03:53:47;4.90;;;3.00;;
79149;SDS011;68563;45.644;13.782;2023-05-10T03:56:12;4.57;;;2.45;;
79149;SDS011;68563;45.644;13.782;2023-05-10T03:58:37;6.25;;;2.90;;
79149;SDS011;68563;45.644;13.782;2023-05-10T04:01:03;6.30;;;3.20;;
79149;SDS011;68563;45.644;13.782;2023-05-10T04:03:28;4.65;;;3.33;;
79149;SDS011;68563;45.644;13.782;2023-05-10T04:06:00;3.78;;;2.72;;
79149;SDS011;68563;45.644;13.782;2023-05-10T04:08:26;5.85;;;3.20;;
79149;SDS011;68563;45.644;13.782;2023-05-10T04:10:52;3.70;;;2.63;;
79149;SDS011;68563;45.644;13.782;2023-05-10T04:13:17;3.95;;;2.65;;
79149;SDS011;68563;45.644;13.782;2023-05-10T04:15:42;4.00;;;2.65;;
79149;SDS011;68563;45.644;13.782;2023-05-10T04:18:08;5.15;;;3.08;;
79149;SDS011;68563;45.644;13.782;2023-05-10T04:20:34;4.38;;;3.00;;
79149;SDS011;68563;45.644;13.782;2023-05-10T04:22:59;5.60;;;3.15;;
79149;SDS011;68563;45.644;13.782;2023-05-10T04:25:24;6.13;;;2.85;;
79149;SDS011;68563;45.644;13.782;2023-05-10T04:27:50;3.97;;;3.08;;
79149;SDS011;68563;45.644;13.782;2023-05-10T04:30:16;7.47;;;3.03;;
79149;SDS011;68563;45.644;13.782;2023-05-10T04:32:42;3.40;;;2.55;;
79149;SDS011;68563;45.644;13.782;2023-05-10T04:35:07;3.92;;;2.67;;
79149;SDS011;68563;45.644;13.782;2023-05-10T04:37:35;9.30;;;2.85;;
79149;SDS011;68563;45.644;13.782;2023-05-10T04:40:00;5.68;;;2.88;;
79149;SDS011;68563;45.644;13.782;2023-05-10T04:42:26;4.90;;;3.10;;
79149;SDS011;68563;45.644;13.782;2023-05-10T04:44:51;5.15;;;3.20;;
79149;SDS011;68563;45.644;13.782;2023-05-10T04:47:17;6.43;;;2.63;;
79149;SDS011;68563;45.644;13.782;2023-05-10T04:49:42;3.42;;;2.95;;
79149;SDS011;68563;45.644;13.782;2023-05-10T04:52:07;4.18;;;3.03;;
79149;SDS011;68563;45.644;13.782;2023-05-10T04:54:33;3.88;;;2.80;;
79149;SDS011;68563;45.644;13.782;2023-05-10T04:56:59;4.03;;;3.10;;
79149;SDS011;68563;45.644;13.782;2023-05-10T04:59:24;3.38;;;2.92;;
79149;SDS011;68563;45.644;13.782;2023-05-10T05:01:50;5.82;;;3.20;;
79149;SDS011;68563;45.644;13.782;2023-05-10T05:04:15;4.32;;;2.58;;
79149;SDS011;68563;45.644;13.782;2023-05-10T05:06:41;3.10;;;2.70;;
79149;SDS011;68563;45.644;13.782;2023-05-10T05:09:06;3.65;;;2.75;;
79149;SDS011;68563;45.644;13.782;2023-05-10T05:11:31;3.05;;;2.47;;
79149;SDS011;68563;45.644;13.782;2023-05-10T05:13:57;5.05;;;2.90;;
79149;SDS011;68563;45.644;13.782;2023-05-10T05:16:24;6.00;;;3.53;;
79149;SDS011;68563;45.644;13.782;2023-05-10T05:18:49;4.20;;;3.10;;
79149;SDS011;68563;45.644;13.782;2023-05-10T05:21:18;4.88;;;2.97;;
79149;SDS011;68563;45.644;13.782;2023-05-10T05:23:44;5.22;;;2.75;;
79149;SDS011;68563;45.644;13.782;2023-05-10T05:26:10;5.22;;;3.55;;
79149;SDS011;68563;45.644;13.782;2023-05-10T05:28:36;7.20;;;2.67;;
79149;SDS011;68563;45.644;13.782;2023-05-10T05:31:05;6.30;;;2.88;;
79149;SDS011;68563;45.644;13.782;2023-05-10T05:33:32;3.33;;;2.50;;
79149;SDS011;68563;45.644;13.782;2023-05-10T05:36:00;5.65;;;2.78;;
79149;SDS011;68563;45.644;13.782;2023-05-10T05:38:26;4.57;;;2.90;;
79149;SDS011;68563;45.644;13.782;2023-05-10T05:40:51;4.28;;;2.70;;
79149;SDS011;68563;45.644;13.782;2023-05-10T05:43:17;3.50;;;2.47;;
79149;SDS011;68563;45.644;13.782;2023-05-10T05:45:42;4.82;;;2.80;;
79149;SDS011;68563;45.644;13.782;2023-05-10T05:48:07;9.23;;;2.88;;
79149;SDS011;68563;45.644;13.782;2023-05-10T05:50:33;5.72;;;2.67;;
79149;SDS011;68563;45.644;13.782;2023-05-10T05:52:58;6.65;;;2.70;;
79149;SDS011;68563;45.644;13.782;2023-05-10T05:55:24;6.75;;;2.70;;
79149;SDS011;68563;45.644;13.782;2023-05-10T05:57:50;5.53;;;2.90;;
79149;SDS011;68563;45.644;13.782;2023-05-10T06:00:16;3.42;;;2.60;;
79149;SDS011;68563;45.644;13.782;2023-05-10T06:02:42;4.22;;;3.03;;
79149;SDS011;68563;45.644;13.782;2023-05-10T06:05:07;3.55;;;2.58;;
79149;SDS011;68563;45.644;13.782;2023-05-10T06:07:33;4.50;;;2.83;;
79149;SDS011;68563;45.644;13.782;2023-05-10T06:09:59;4.18;;;2.70;;
79149;SDS011;68563;45.644;13.782;2023-05-10T06:12:24;3.88;;;2.67;;
79149;SDS011;68563;45.644;13.782;2023-05-10T06:14:50;4.88;;;2.60;;
79149;SDS011;68563;45.644;13.782;2023-05-10T06:17:15;4.57;;;3.05;;
79149;SDS011;68563;45.644;13.782;2023-05-10T06:19:40;3.70;;;2.80;;
79149;SDS011;68563;45.644;13.782;2023-05-10T06:22:06;4.43;;;2.53;;
79149;SDS011;68563;45.644;13.782;2023-05-10T06:24:31;3.25;;;2.60;;
79149;SDS011;68563;45.644;13.782;2023-05-10T06:26:57;4.88;;;3.28;;
79149;SDS011;68563;45.644;13.782;2023-05-10T06:29:25;7.20;;;3.25;;
79149;SDS011;68563;45.644;13.782;2023-05-10T06:31:50;4.93;;;3.38;;
79149;SDS011;68563;45.644;13.782;2023-05-10T06:34:16;4.80;;;3.10;;
79149;SDS011;68563;45.644;13.782;2023-05-10T06:36:41;5.30;;;3.30;;
79149;SDS011;68563;45.644;13.782;2023-05-10T06:39:07;3.70;;;2.78;;
79149;SDS011;68563;45.644;13.782;2023-05-10T06:41:32;4.20;;;2.75;;
79149;SDS011;68563;45.644;13.782;2023-05-10T06:43:57;3.63;;;2.90;;
79149;SDS011;68563;45.644;13.782;2023-05-10T06:46:23;6.05;;;3.40;;
79149;SDS011;68563;45.644;13.782;2023-05-10T06:48:50;5.22;;;2.72;;
79149;SDS011;68563;45.644;13.782;2023-05-10T06:51:15;4.68;;;3.08;;
79149;SDS011;68563;45.644;13.782;2023-05-10T06:53:44;3.15;;;2.78;;
79149;SDS011;68563;45.644;13.782;2023-05-10T06:56:10;7.10;;;3.30;;
79149;SDS011;68563;45.644;13.782;2023-05-10T06:58:35;4.38;;;3.17;;
79149;SDS011;68563;45.644;13.782;2023-05-10T07:01:04;4.32;;;3.05;;
79149;SDS011;68563;45.644;13.782;2023-05-10T07:03:30;5.47;;;3.03;;
79149;SDS011;68563;45.644;13.782;2023-05-10T07:06:02;4.78;;;3.28;;
79149;SDS011;68563;45.644;13.782;2023-05-10T07:08:31;3.88;;;3.22;;
79149;SDS011;68563;45.644;13.782;2023-05-10T07:11:03;4.82;;;2.90;;
79149;SDS011;68563;45.644;13.782;2023-05-10T07:13:32;4.20;;;3.15;;
79149;SDS011;68563;45.644;13.782;2023-05-10T07:15:58;5.80;;;3.58;;
79149;SDS011;68563;45.644;13.782;2023-05-10T07:18:24;4.43;;;3.38;;
79149;SDS011;68563;45.644;13.782;2023-05-10T07:20:49;4.20;;;3.00;;
79149;SDS011;68563;45.644;13.782;2023-05-10T07:23:15;5.22;;;3.28;;
79149;SDS011;68563;45.644;13.782;2023-05-10T07:25:44;6.03;;;2.80;;
79149;SDS011;68563;45.644;13.782;2023-05-10T07:28:13;5.97;;;3.70;;
79149;SDS011;68563;45.644;13.782;2023-05-10T07:30:39;5.30;;;3.58;;
79149;SDS011;68563;45.644;13.782;2023-05-10T07:33:04;4.10;;;2.83;;
79149;SDS011;68563;45.644;13.782;2023-05-10T07:35:29;5.03;;;3.58;;
79149;SDS011;68563;45.644;13.782;2023-05-10T07:37:55;4.80;;;3.40;;
79149;SDS011;68563;45.644;13.782;2023-05-10T07:40:21;5.15;;;2.88;;
79149;SDS011;68563;45.644;13.782;2023-05-10T07:42:46;4.40;;;3.00;;
79149;SDS011;68563;45.644;13.782;2023-05-10T07:45:12;4.63;;;3.40;;
79149;SDS011;68563;45.644;13.782;2023-05-10T07:47:37;4.53;;;3.65;;
79149;SDS011;68563;45.644;13.782;2023-05-10T07:50:03;5.50;;;3.58;;
79149;SDS011;68563;45.644;13.782;2023-05-10T07:52:29;4.47;;;3.40;;
79149;SDS011;68563;45.644;13.782;2023-05-10T07:54:54;5.30;;;3.70;;
79149;SDS011;68563;45.644;13.782;2023-05-10T07:57:21;3.97;;;3.40;;
79149;SDS011;68563;45.644;13.782;2023-05-10T07:59:47;3.70;;;2.65;;
79149;SDS011;68563;45.644;13.782;2023-05-10T08:02:12;4.63;;;3.03;;
79149;SDS011;68563;45.644;13.782;2023-05-10T08:04:38;5.10;;;3.05;;
79149;SDS011;68563;45.644;13.782;2023-05-10T08:07:03;6.15;;;3.60;;
79149;SDS011;68563;45.644;13.782;2023-05-10T08:09:29;3.72;;;3.03;;
79149;SDS011;68563;45.644;13.782;2023-05-10T08:11:54;3.75;;;3.00;;
79149;SDS011;68563;45.644;13.782;2023-05-10T08:14:20;4.03;;;3.05;;
79149;SDS011;68563;45.644;13.782;2023-05-10T08:16:45;4.60;;;3.50;;
79149;SDS011;68563;45.644;13.782;2023-05-10T08:19:11;5.40;;;3.80;;
79149;SDS011;68563;45.644;13.782;2023-05-10T08:21:36;4.10;;;3.10;;
79149;SDS011;68563;45.644;13.782;2023-05-10T08:24:02;5.35;;;3.40;;
79149;SDS011;68563;45.644;13.782;2023-05-10T08:26:27;6.18;;;3.50;;
79149;SDS011;68563;45.644;13.782;2023-05-10T08:28:53;4.07;;;2.75;;
79149;SDS011;68563;45.644;13.782;2023-05-10T08:31:18;5.72;;;3.92;;
79149;SDS011;68563;45.644;13.782;2023-05-10T08:33:44;5.13;;;4.00;;
79149;SDS011;68563;45.644;13.782;2023-05-10T08:36:09;5.00;;;3.30;;
79149;SDS011;68563;45.644;13.782;2023-05-10T08:38:35;5.82;;;4.20;;
79149;SDS011;68563;45.644;13.782;2023-05-10T08:41:00;4.97;;;3.42;;
79149;SDS011;68563;45.644;13.782;2023-05-10T08:43:27;5.68;;;4.13;;
79149;SDS011;68563;45.644;13.782;2023-05-10T08:45:56;5.15;;;3.72;;
79149;SDS011;68563;45.644;13.782;2023-05-10T08:48:25;6.15;;;4.20;;
79149;SDS011;68563;45.644;13.782;2023-05-10T08:50:53;6.13;;;3.92;;
79149;SDS011;68563;45.644;13.782;2023-05-10T08:53:22;6.10;;;3.90;;
79149;SDS011;68563;45.644;13.782;2023-05-10T08:55:52;6.00;;;4.38;;
79149;SDS011;68563;45.644;13.782;2023-05-10T08:58:17;5.68;;;3.63;;
79149;SDS011;68563;45.644;13.782;2023-05-10T09:00:44;4.70;;;3.50;;
79149;SDS011;68563;45.644;13.782;2023-05-10T09:03:10;5.43;;;3.80;;
79149;SDS011;68563;45.644;13.782;2023-05-10T09:05:36;9.43;;;4.82;;
79149;SDS011;68563;45.644;13.782;2023-05-10T09:08:02;4.78;;;3.47;;
79149;SDS011;68563;45.644;13.782;2023-05-10T09:10:27;4.70;;;3.63;;
79149;SDS011;68563;45.644;13.782;2023-05-10T09:12:55;5.85;;;3.70;;
79149;SDS011;68563;45.644;13.782;2023-05-10T09:15:22;7.15;;;4.38;;
79149;SDS011;68563;45.644;13.782;2023-05-10T09:17:47;5.55;;;4.40;;
79149;SDS011;68563;45.644;13.782;2023-05-10T09:20:14;6.75;;;4.40;;
79149;SDS011;68563;45.644;13.782;2023-05-10T09:22:42;6.32;;;3.53;;
79149;SDS011;68563;45.644;13.782;2023-05-10T09:27:35;5.30;;;4.20;;
79149;SDS011;68563;45.644;13.782;2023-05-10T09:30:01;5.28;;;3.58;;
79149;SDS011;68563;45.644;13.782;2023-05-10T09:32:37;5.15;;;3.78;;
79149;SDS011;68563;45.644;13.782;2023-05-10T09:35:10;5.32;;;3.67;;
79149;SDS011;68563;45.644;13.782;2023-05-10T09:37:41;7.93;;;3.85;;
79149;SDS011;68563;45.644;13.782;2023-05-10T09:40:18;6.47;;;4.07;;
79149;SDS011;68563;45.644;13.782;2023-05-10T09:42:58;5.25;;;3.70;;
79149;SDS011;68563;45.644;13.782;2023-05-10T09:45:26;6.38;;;4.10;;
79149;SDS011;68563;45.644;13.782;2023-05-10T09:47:53;5.88;;;3.90;;
79149;SDS011;68563;45.644;13.782;2023-05-10T09:50:19;9.10;;;4.15;;
79149;SDS011;68563;45.644;13.782;2023-05-10T09:55:12;7.05;;;4.00;;
79149;SDS011;68563;45.644;13.782;2023-05-10T09:57:38;6.43;;;3.97;;
79149;SDS011;68563;45.644;13.782;2023-05-10T10:00:04;5.45;;;3.78;;
79149;SDS011;68563;45.644;13.782;2023-05-10T10:02:31;5.13;;;4.28;;
79149;SDS011;68563;45.644;13.782;2023-05-10T10:04:57;6.00;;;4.63;;
79149;SDS011;68563;45.644;13.782;2023-05-10T10:07:23;5.15;;;3.78;;
79149;SDS011;68563;45.644;13.782;2023-05-10T10:09:51;6.15;;;4.60;;
79149;SDS011;68563;45.644;13.782;2023-05-10T10:12:18;7.00;;;4.35;;
79149;SDS011;68563;45.644;13.782;2023-05-10T10:14:45;8.85;;;4.53;;
79149;SDS011;68563;45.644;13.782;2023-05-10T10:17:15;6.65;;;4.90;;
79149;SDS011;68563;45.644;13.782;2023-05-10T10:19:41;6.90;;;4.60;;
79149;SDS011;68563;45.644;13.782;2023-05-10T10:22:06;6.57;;;3.78;;
79149;SDS011;68563;45.644;13.782;2023-05-10T10:24:32;6.35;;;4.68;;
79149;SDS011;68563;45.644;13.782;2023-05-10T10:26:59;6.97;;;4.80;;
79149;SDS011;68563;45.644;13.782;2023-05-10T10:29:34;7.30;;;4.85;;
79149;SDS011;68563;45.644;13.782;2023-05-10T10:32:12;6.75;;;4.95;;
79149;SDS011;68563;45.644;13.782;2023-05-10T10:34:44;6.63;;;4.57;;
79149;SDS011;68563;45.644;13.782;2023-05-10T10:37:09;6.18;;;4.25;;
79149;SDS011;68563;45.644;13.782;2023-05-10T10:39:35;5.38;;;4.55;;
79149;SDS011;68563;45.644;13.782;2023-05-10T10:42:01;10.73;;;5.82;;
79149;SDS011;68563;45.644;13.782;2023-05-10T10:55:09;6.40;;;4.65;;
79149;SDS011;68563;45.644;13.782;2023-05-10T10:57:43;6.35;;;4.90;;
79149;SDS011;68563;45.644;13.782;2023-05-10T11:02:49;6.55;;;4.93;;
79149;SDS011;68563;45.644;13.782;2023-05-10T11:05:49;9.32;;;5.07;;
79149;SDS011;68563;45.644;13.782;2023-05-10T11:08:33;7.43;;;5.78;;
79149;SDS011;68563;45.644;13.782;2023-05-10T11:11:06;9.73;;;6.00;;
79149;SDS011;68563;45.644;13.782;2023-05-10T11:18:36;7.18;;;5.53;;
79149;SDS011;68563;45.644;13.782;2023-05-10T11:21:02;7.47;;;5.10;;
79149;SDS011;68563;45.644;13.782;2023-05-10T11:23:47;6.97;;;5.40;;
79149;SDS011;68563;45.644;13.782;2023-05-10T11:26:13;9.30;;;5.13;;
79149;SDS011;68563;45.644;13.782;2023-05-10T11:28:42;8.45;;;5.63;;
79149;SDS011;68563;45.644;13.782;2023-05-10T11:33:46;7.18;;;4.32;;
79149;SDS011;68563;45.644;13.782;2023-05-10T11:41:18;7.45;;;5.43;;
79149;SDS011;68563;45.644;13.782;2023-05-10T11:43:46;7.88;;;5.00;;
79149;SDS011;68563;45.644;13.782;2023-05-10T11:46:14;6.95;;;5.22;;
79149;SDS011;68563;45.644;13.782;2023-05-10T11:48:41;7.13;;;5.45;;
79149;SDS011;68563;45.644;13.782;2023-05-10T11:51:08;5.65;;;4.40;;
79149;SDS011;68563;45.644;13.782;2023-05-10T11:53:34;6.10;;;4.53;;
79149;SDS011;68563;45.644;13.782;2023-05-10T11:56:06;8.30;;;4.85;;
79149;SDS011;68563;45.644;13.782;2023-05-10T11:58:33;6.18;;;5.20;;
79149;SDS011;68563;45.644;13.782;2023-05-10T12:01:00;8.10;;;5.40;;
79149;SDS011;68563;45.644;13.782;2023-05-10T12:03:26;6.13;;;5.00;;
79149;SDS011;68563;45.644;13.782;2023-05-10T12:05:53;5.90;;;5.28;;
79149;SDS011;68563;45.644;13.782;2023-05-10T12:08:20;6.20;;;4.70;;
79149;SDS011;68563;45.644;13.782;2023-05-10T12:10:48;6.68;;;5.60;;
79149;SDS011;68563;45.644;13.782;2023-05-10T12:13:13;8.40;;;5.30;;
79149;SDS011;68563;45.644;13.782;2023-05-10T12:15:40;5.28;;;4.45;;
79149;SDS011;68563;45.644;13.782;2023-05-10T12:18:07;6.00;;;4.40;;
79149;SDS011;68563;45.644;13.782;2023-05-10T12:20:35;5.90;;;5.30;;
79149;SDS011;68563;45.644;13.782;2023-05-10T12:23:01;5.95;;;5.30;;
79149;SDS011;68563;45.644;13.782;2023-05-10T12:25:34;6.40;;;5.30;;
79149;SDS011;68563;45.644;13.782;2023-05-10T12:28:05;10.90;;;4.18;;
79149;SDS011;68563;45.644;13.782;2023-05-10T12:30:35;7.32;;;5.07;;
79149;SDS011;68563;45.644;13.782;2023-05-10T12:33:02;6.90;;;4.72;;
79149;SDS011;68563;45.644;13.782;2023-05-10T12:35:45;6.22;;;5.03;;
79149;SDS011;68563;45.644;13.782;2023-05-10T12:38:25;5.95;;;4.32;;
79149;SDS011;68563;45.644;13.782;2023-05-10T12:40:59;6.00;;;5.25;;
79149;SDS011;68563;45.644;13.782;2023-05-10T12:43:25;7.55;;;5.15;;
79149;SDS011;68563;45.644;13.782;2023-05-10T12:45:51;6.45;;;5.07;;
79149;SDS011;68563;45.644;13.782;2023-05-10T12:48:17;5.57;;;4.90;;
79149;SDS011;68563;45.644;13.782;2023-05-10T12:50:42;6.80;;;4.78;;
79149;SDS011;68563;45.644;13.782;2023-05-10T12:53:08;5.70;;;4.90;;
79149;SDS011;68563;45.644;13.782;2023-05-10T12:55:34;5.55;;;4.60;;
79149;SDS011;68563;45.644;13.782;2023-05-10T12:57:59;5.25;;;4.75;;
79149;SDS011;68563;45.644;13.782;2023-05-10T13:00:25;8.55;;;5.97;;
79149;SDS011;68563;45.644;13.782;2023-05-10T13:02:50;5.60;;;5.00;;
79149;SDS011;68563;45.644;13.782;2023-05-10T13:05:16;6.57;;;5.32;;
79149;SDS011;68563;45.644;13.782;2023-05-10T13:07:41;5.75;;;4.45;;
79149;SDS011;68563;45.644;13.782;2023-05-10T13:10:08;5.55;;;4.38;;
79149;SDS011;68563;45.644;13.782;2023-05-10T13:12:34;5.32;;;4.50;;
79149;SDS011;68563;45.644;13.782;2023-05-10T13:15:00;5.50;;;4.40;;
79149;SDS011;68563;45.644;13.782;2023-05-10T13:17:25;7.03;;;5.43;;
79149;SDS011;68563;45.644;13.782;2023-05-10T13:19:51;7.53;;;5.50;;
79149;SDS011;68563;45.644;13.782;2023-05-10T13:22:16;5.45;;;4.68;;
79149;SDS011;68563;45.644;13.782;2023-05-10T13:24:42;5.18;;;4.63;;
79149;SDS011;68563;45.644;13.782;2023-05-10T13:27:07;6.60;;;5.30;;
79149;SDS011;68563;45.644;13.782;2023-05-10T13:29:33;6.40;;;5.70;;
79149;SDS011;68563;45.644;13.782;2023-05-10T13:31:58;6.72;;;5.65;;
79149;SDS011;68563;45.644;13.782;2023-05-10T13:34:24;7.35;;;5.63;;
79149;SDS011;68563;45.644;13.782;2023-05-10T13:36:49;7.07;;;5.32;;
79149;SDS011;68563;45.644;13.782;2023-05-10T13:39:15;5.60;;;4.60;;
79149;SDS011;68563;45.644;13.782;2023-05-10T13:41:41;7.22;;;4.60;;
79149;SDS011;68563;45.644;13.782;2023-05-10T13:44:06;6.90;;;5.35;;
79149;SDS011;68563;45.644;13.782;2023-05-10T13:46:32;5.72;;;4.60;;
79149;SDS011;68563;45.644;13.782;2023-05-10T13:48:57;6.65;;;5.45;;
79149;SDS011;68563;45.644;13.782;2023-05-10T13:51:23;5.80;;;5.20;;
79149;SDS011;68563;45.644;13.782;2023-05-10T13:53:48;6.65;;;5.68;;
79149;SDS011;68563;45.644;13.782;2023-05-10T13:56:14;6.28;;;5.68;;
79149;SDS011;68563;45.644;13.782;2023-05-10T13:58:39;6.15;;;5.55;;
79149;SDS011;68563;45.644;13.782;2023-05-10T14:01:05;6.70;;;5.30;;
79149;SDS011;68563;45.644;13.782;2023-05-10T14:03:30;8.60;;;6.65;;
79149;SDS011;68563;45.644;13.782;2023-05-10T14:05:56;6.25;;;5.50;;
79149;SDS011;68563;45.644;13.782;2023-05-10T14:08:21;7.35;;;6.00;;
79149;SDS011;68563;45.644;13.782;2023-05-10T14:10:50;6.38;;;5.60;;
79149;SDS011;68563;45.644;13.782;2023-05-10T14:13:17;6.10;;;5.50;;
79149;SDS011;68563;45.644;13.782;2023-05-10T14:15:42;7.05;;;6.35;;
79149;SDS011;68563;45.644;13.782;2023-05-10T14:18:07;8.15;;;6.00;;
79149;SDS011;68563;45.644;13.782;2023-05-10T14:20:33;8.27;;;5.78;;
79149;SDS011;68563;45.644;13.782;2023-05-10T14:22:59;6.90;;;6.20;;
79149;SDS011;68563;45.644;13.782;2023-05-10T14:25:25;6.65;;;6.00;;
79149;SDS011;68563;45.644;13.782;2023-05-10T14:27:50;6.25;;;5.65;;
79149;SDS011;68563;45.644;13.782;2023-05-10T14:30:19;7.32;;;6.40;;
79149;SDS011;68563;45.644;13.782;2023-05-10T14:32:44;11.35;;;6.47;;
79149;SDS011;68563;45.644;13.782;2023-05-10T14:35:10;7.05;;;6.35;;
79149;SDS011;68563;45.644;13.782;2023-05-10T14:37:35;7.05;;;6.18;;
79149;SDS011;68563;45.644;13.782;2023-05-10T14:40:02;8.18;;;5.97;;
79149;SDS011;68563;45.644;13.782;2023-05-10T14:42:29;8.35;;;6.43;;
79149;SDS011;68563;45.644;13.782;2023-05-10T14:44:56;6.10;;;5.50;;
79149;SDS011;68563;45.644;13.782;2023-05-10T14:47:22;8.45;;;6.45;;
79149;SDS011;68563;45.644;13.782;2023-05-10T14:49:47;6.97;;;5.82;;
79149;SDS011;68563;45.644;13.782;2023-05-10T14:52:13;7.18;;;6.25;;
79149;SDS011;68563;45.644;13.782;2023-05-10T14:54:39;6.72;;;5.38;;
79149;SDS011;68563;45.644;13.782;2023-05-10T14:57:05;5.93;;;5.25;;
79149;SDS011;68563;45.644;13.782;2023-05-10T14:59:31;6.75;;;6.05;;
79149;SDS011;68563;45.644;13.782;2023-05-10T15:01:57;6.13;;;5.13;;
79149;SDS011;68563;45.644;13.782;2023-05-10T15:04:22;7.90;;;6.40;;
79149;SDS011;68563;45.644;13.782;2023-05-10T15:06:48;7.47;;;6.70;;
79149;SDS011;68563;45.644;13.782;2023-05-10T15:09:13;6.60;;;5.40;;
79149;SDS011;68563;45.644;13.782;2023-05-10T15:11:39;6.25;;;5.65;;
79149;SDS011;68563;45.644;13.782;2023-05-10T15:14:04;8.18;;;6.15;;
79149;SDS011;68563;45.644;13.782;2023-05-10T15:16:31;6.07;;;5.35;;
79149;SDS011;68563;45.644;13.782;2023-05-10T15:18:56;7.22;;;6.22;;
79149;SDS011;68563;45.644;13.782;2023-05-10T15:21:21;6.50;;;5.88;;
79149;SDS011;68563;45.644;13.782;2023-05-10T15:23:47;6.55;;;5.95;;
79149;SDS011;68563;45.644;13.782;2023-05-10T15:26:13;7.13;;;6.43;;
79149;SDS011;68563;45.644;13.782;2023-05-10T15:28:38;7.30;;;6.20;;
79149;SDS011;68563;45.644;13.782;2023-05-10T15:31:03;6.80;;;5.63;;
79149;SDS011;68563;45.644;13.782;2023-05-10T15:33:29;5.80;;;5.22;;